sensor_id;sensor_type;location;lat;lon;timestamp;pressure;altitude;pressure_sealevel;temperature;humidity
62011;BME280;47967;51.756;10.174;2022-11-15T05:03:01;99263.47;;;9.85;75.00
62011;BME280;47967;51.756;10.174;2022-11-15T05:07:39;99261.59;;;9.72;75.07
62011;BME280;47967;51.756;10.174;2022-11-15T05:12:00;99261.38;;;9.54;75.17
62011;BME280;47967;51.756;10.174;2022-11-15T05:16:22;99263.44;;;9.45;75.43
62011;BME280;47967;51.756;10.174;2022-11-15T05:20:44;99266.31;;;9.43;76.43
62011;BME280;47967;51.756;10.174;2022-11-15T05:25:06;99280.19;;;9.40;76.24
62011;BME280;47967;51.756;10.174;2022-11-15T05:29:28;99279.31;;;9.20;75.92
62011;BME280;47967;51.756;10.174;2022-11-15T05:33:50;99282.84;;;9.20;76.42
62011;BME280;47967;51.756;10.174;2022-11-15T05:38:13;99277.25;;;9.08;75.73
62011;BME280;47967;51.756;10.174;2022-11-15T05:42:34;99276.63;;;9.13;76.92
62011;BME280;47967;51.756;10.174;2022-11-15T05:46:55;99280.19;;;9.27;77.58
62011;BME280;47967;51.756;10.174;2022-11-15T05:51:19;99287.00;;;9.29;76.64
62011;BME280;47967;51.756;10.174;2022-11-15T05:55:42;99283.25;;;9.24;76.48
62011;BME280;47967;51.756;10.174;2022-11-15T06:00:05;99294.69;;;9.39;75.15
62011;BME280;47967;51.756;10.174;2022-11-15T06:04:26;99291.59;;;9.49;75.27
62011;BME280;47967;51.756;10.174;2022-11-15T06:08:48;99293.91;;;9.59;74.62
62011;BME280;47967;51.756;10.174;2022-11-15T06:13:10;99293.50;;;9.75;74.35
62011;BME280;47967;51.756;10.174;2022-11-15T06:17:31;99298.66;;;9.84;74.32
62011;BME280;47967;51.756;10.174;2022-11-15T06:21:52;99296.41;;;10.07;74.64
62011;BME280;47967;51.756;10.174;2022-11-15T06:26:13;99303.03;;;10.38;74.92
62011;BME280;47967;51.756;10.174;2022-11-15T06:30:36;99300.06;;;10.60;74.30
62011;BME280;47967;51.756;10.174;2022-11-15T06:34:57;99313.13;;;10.77;74.28
62011;BME280;47967;51.756;10.174;2022-11-15T06:39:18;99310.09;;;11.05;74.77
62011;BME280;47967;51.756;10.174;2022-11-15T06:43:40;99310.94;;;11.37;73.94
62011;BME280;47967;51.756;10.174;2022-11-15T06:48:03;99312.66;;;11.64;73.24
62011;BME280;47967;51.756;10.174;2022-11-15T06:52:24;99307.91;;;11.59;73.09
62011;BME280;47967;51.756;10.174;2022-11-15T06:56:46;99314.31;;;11.65;73.03
62011;BME280;47967;51.756;10.174;2022-11-15T07:01:09;99324.41;;;11.76;72.56
62011;BME280;47967;51.756;10.174;2022-11-15T07:05:32;99326.63;;;11.86;72.04
62011;BME280;47967;51.756;10.174;2022-11-15T07:09:53;99329.00;;;12.08;71.61
62011;BME280;47967;51.756;10.174;2022-11-15T07:14:14;99324.69;;;12.25;70.95
62011;BME280;47967;51.756;10.174;2022-11-15T07:18:36;99316.63;;;12.19;70.81
62011;BME280;47967;51.756;10.174;2022-11-15T07:23:00;99314.72;;;12.26;70.95
62011;BME280;47967;51.756;10.174;2022-11-15T07:27:22;99313.97;;;12.12;70.66
62011;BME280;47967;51.756;10.174;2022-11-15T07:31:44;99310.19;;;12.20;70.78
62011;BME280;47967;51.756;10.174;2022-11-15T07:36:06;99312.00;;;12.26;70.60
62011;BME280;47967;51.756;10.174;2022-11-15T07:40:30;99310.44;;;12.37;70.35
62011;BME280;47967;51.756;10.174;2022-11-15T07:44:52;99311.41;;;12.42;70.09
62011;BME280;47967;51.756;10.174;2022-11-15T07:49:13;99307.16;;;12.53;69.55
62011;BME280;47967;51.756;10.174;2022-11-15T07:53:34;99301.50;;;12.55;69.58
62011;BME280;47967;51.756;10.174;2022-11-15T07:58:01;99301.81;;;12.65;69.46
62011;BME280;47967;51.756;10.174;2022-11-15T08:02:23;99308.00;;;12.72;69.18
62011;BME280;47967;51.756;10.174;2022-11-15T08:06:49;99299.09;;;12.84;68.49
62011;BME280;47967;51.756;10.174;2022-11-15T08:11:10;99289.94;;;12.85;68.54
62011;BME280;47967;51.756;10.174;2022-11-15T08:15:34;99292.50;;;12.79;68.69
62011;BME280;47967;51.756;10.174;2022-11-15T08:19:56;99290.91;;;12.53;69.24
62011;BME280;47967;51.756;10.174;2022-11-15T08:24:17;99280.31;;;12.52;69.15
62011;BME280;47967;51.756;10.174;2022-11-15T08:28:38;99283.25;;;12.50;69.14
62011;BME280;47967;51.756;10.174;2022-11-15T08:33:01;99267.31;;;12.42;69.28
62011;BME280;47967;51.756;10.174;2022-11-15T08:37:23;99265.66;;;12.41;69.14
62011;BME280;47967;51.756;10.174;2022-11-15T08:41:43;99273.78;;;12.41;69.20
62011;BME280;47967;51.756;10.174;2022-11-15T08:46:05;99276.56;;;12.34;69.57
62011;BME280;47967;51.756;10.174;2022-11-15T08:50:28;99269.63;;;12.57;69.07
62011;BME280;47967;51.756;10.174;2022-11-15T08:54:49;99273.75;;;12.78;68.52
62011;BME280;47967;51.756;10.174;2022-11-15T08:59:10;99273.25;;;12.88;68.76
62011;BME280;47967;51.756;10.174;2022-11-15T09:03:31;99275.56;;;13.03;68.37
62011;BME280;47967;51.756;10.174;2022-11-15T09:07:54;99275.13;;;13.18;68.18
62011;BME280;47967;51.756;10.174;2022-11-15T09:12:15;99273.97;;;13.25;67.69
62011;BME280;47967;51.756;10.174;2022-11-15T09:16:36;99268.06;;;13.47;67.25
62011;BME280;47967;51.756;10.174;2022-11-15T09:20:58;99262.72;;;13.71;66.96
62011;BME280;47967;51.756;10.174;2022-11-15T09:25:21;99251.75;;;13.77;66.13
62011;BME280;47967;51.756;10.174;2022-11-15T09:29:43;99239.03;;;13.78;65.13
62011;BME280;47967;51.756;10.174;2022-11-15T09:34:04;99247.78;;;14.04;64.57
62011;BME280;47967;51.756;10.174;2022-11-15T09:38:26;99239.06;;;14.14;64.23
62011;BME280;47967;51.756;10.174;2022-11-15T09:42:58;99237.00;;;14.45;64.00
62011;BME280;47967;51.756;10.174;2022-11-15T09:47:41;99237.66;;;14.76;62.99
62011;BME280;47967;51.756;10.174;2022-11-15T09:52:10;99241.03;;;14.95;62.25
62011;BME280;47967;51.756;10.174;2022-11-15T09:56:16;99235.69;;;15.00;62.08
62011;BME280;47967;51.756;10.174;2022-11-15T10:00:25;99223.16;;;14.99;61.46
62011;BME280;47967;51.756;10.174;2022-11-15T10:04:47;99220.13;;;14.95;61.38
62011;BME280;47967;51.756;10.174;2022-11-15T10:08:55;99218.31;;;15.30;60.73
62011;BME280;47967;51.756;10.174;2022-11-15T10:13:02;99218.97;;;15.20;60.58
62011;BME280;47967;51.756;10.174;2022-11-15T10:17:15;99217.63;;;15.23;60.55
62011;BME280;47967;51.756;10.174;2022-11-15T10:21:29;99216.34;;;15.42;60.12
62011;BME280;47967;51.756;10.174;2022-11-15T10:25:35;99211.41;;;15.73;59.89
62011;BME280;47967;51.756;10.174;2022-11-15T10:29:43;99210.06;;;16.10;58.92
62011;BME280;47967;51.756;10.174;2022-11-15T10:33:48;99199.25;;;16.54;57.89
62011;BME280;47967;51.756;10.174;2022-11-15T10:37:50;99195.69;;;16.98;57.51
62011;BME280;47967;51.756;10.174;2022-11-15T10:41:53;99184.91;;;17.13;55.75
62011;BME280;47967;51.756;10.174;2022-11-15T10:46:18;99189.88;;;17.17;55.94
62011;BME280;47967;51.756;10.174;2022-11-15T10:50:44;99186.72;;;17.03;55.79
62011;BME280;47967;51.756;10.174;2022-11-15T10:54:49;99186.16;;;16.56;56.75
62011;BME280;47967;51.756;10.174;2022-11-15T10:58:55;99185.81;;;16.92;55.98
62011;BME280;47967;51.756;10.174;2022-11-15T11:02:59;99181.03;;;17.04;55.64
62011;BME280;47967;51.756;10.174;2022-11-15T11:07:20;99172.91;;;16.87;55.91
62011;BME280;47967;51.756;10.174;2022-11-15T11:11:23;99166.41;;;17.16;55.39
62011;BME280;47967;51.756;10.174;2022-11-15T11:15:27;99167.13;;;17.06;56.16
62011;BME280;47967;51.756;10.174;2022-11-15T11:19:49;99170.50;;;16.91;56.03
62011;BME280;47967;51.756;10.174;2022-11-15T11:23:59;99174.97;;;16.97;56.31
62011;BME280;47967;51.756;10.174;2022-11-15T11:28:25;99168.53;;;16.86;56.38
62011;BME280;47967;51.756;10.174;2022-11-15T11:32:47;99174.13;;;16.74;56.20
62011;BME280;47967;51.756;10.174;2022-11-15T11:36:59;99168.44;;;16.98;55.77
62011;BME280;47967;51.756;10.174;2022-11-15T11:41:15;99161.09;;;17.31;55.71
62011;BME280;47967;51.756;10.174;2022-11-15T11:45:27;99161.56;;;17.23;55.55
62011;BME280;47967;51.756;10.174;2022-11-15T11:49:40;99165.38;;;17.22;55.77
62011;BME280;47967;51.756;10.174;2022-11-15T11:53:50;99154.69;;;17.15;56.20
62011;BME280;47967;51.756;10.174;2022-11-15T11:58:04;99146.22;;;17.11;55.71
62011;BME280;47967;51.756;10.174;2022-11-15T12:02:15;99143.25;;;16.91;55.96
62011;BME280;47967;51.756;10.174;2022-11-15T12:06:27;99141.31;;;17.13;55.75
62011;BME280;47967;51.756;10.174;2022-11-15T12:10:34;99130.69;;;17.17;55.91
62011;BME280;47967;51.756;10.174;2022-11-15T12:14:43;99135.00;;;17.08;56.29
62011;BME280;47967;51.756;10.174;2022-11-15T12:18:49;99120.50;;;17.02;56.44
62011;BME280;47967;51.756;10.174;2022-11-15T12:22:56;99119.66;;;16.74;56.90
62011;BME280;47967;51.756;10.174;2022-11-15T12:27:05;99115.84;;;16.75;57.30
62011;BME280;47967;51.756;10.174;2022-11-15T12:31:15;99096.28;;;16.78;57.20
62011;BME280;47967;51.756;10.174;2022-11-15T12:35:24;99101.38;;;16.97;57.15
62011;BME280;47967;51.756;10.174;2022-11-15T12:40:16;99100.66;;;17.07;57.04
62011;BME280;47967;51.756;10.174;2022-11-15T12:49:09;99085.59;;;17.37;56.40
62011;BME280;47967;51.756;10.174;2022-11-15T12:53:28;99085.59;;;17.37;56.49
62011;BME280;47967;51.756;10.174;2022-11-15T12:57:39;99073.34;;;17.02;56.75
62011;BME280;47967;51.756;10.174;2022-11-15T13:01:59;99071.13;;;17.31;56.45
62011;BME280;47967;51.756;10.174;2022-11-15T13:06:09;99063.94;;;17.20;56.45
62011;BME280;47967;51.756;10.174;2022-11-15T13:10:32;99064.66;;;17.05;56.71
62011;BME280;47967;51.756;10.174;2022-11-15T13:14:50;99063.06;;;16.81;57.01
62011;BME280;47967;51.756;10.174;2022-11-15T13:18:53;99047.16;;;16.95;56.65
62011;BME280;47967;51.756;10.174;2022-11-15T13:23:07;99047.19;;;16.73;56.67
62011;BME280;47967;51.756;10.174;2022-11-15T13:27:14;99036.84;;;16.75;57.02
62011;BME280;47967;51.756;10.174;2022-11-15T13:31:35;99035.97;;;16.70;56.91
62011;BME280;47967;51.756;10.174;2022-11-15T13:35:40;99031.88;;;16.67;57.11
62011;BME280;47967;51.756;10.174;2022-11-15T13:39:45;99035.84;;;16.54;57.46
62011;BME280;47967;51.756;10.174;2022-11-15T13:43:49;99018.22;;;16.35;57.58
62011;BME280;47967;51.756;10.174;2022-11-15T13:47:54;99019.22;;;16.01;58.51
62011;BME280;47967;51.756;10.174;2022-11-15T13:52:00;99015.69;;;16.00;58.80
62011;BME280;47967;51.756;10.174;2022-11-15T13:56:05;99006.00;;;15.88;58.71
62011;BME280;47967;51.756;10.174;2022-11-15T14:00:33;99013.72;;;15.96;58.73
62011;BME280;47967;51.756;10.174;2022-11-15T14:04:38;98997.88;;;15.71;58.89
62011;BME280;47967;51.756;10.174;2022-11-15T14:08:57;98993.75;;;15.85;58.93
62011;BME280;47967;51.756;10.174;2022-11-15T14:13:03;98998.38;;;16.12;58.32
62011;BME280;47967;51.756;10.174;2022-11-15T14:17:19;98985.13;;;16.21;58.08
62011;BME280;47967;51.756;10.174;2022-11-15T14:21:24;98987.72;;;16.05;57.97
62011;BME280;47967;51.756;10.174;2022-11-15T14:25:28;98987.94;;;16.04;57.92
62011;BME280;47967;51.756;10.174;2022-11-15T14:29:32;98989.13;;;15.86;58.32
62011;BME280;47967;51.756;10.174;2022-11-15T14:33:36;98989.69;;;15.88;58.18
62011;BME280;47967;51.756;10.174;2022-11-15T14:37:40;98986.16;;;15.87;58.11
62011;BME280;47967;51.756;10.174;2022-11-15T14:41:43;98985.84;;;15.83;57.75
62011;BME280;47967;51.756;10.174;2022-11-15T14:45:47;98997.03;;;15.87;57.40
62011;BME280;47967;51.756;10.174;2022-11-15T14:49:50;98991.91;;;15.91;57.18
62011;BME280;47967;51.756;10.174;2022-11-15T14:53:52;98986.50;;;15.74;57.49
62011;BME280;47967;51.756;10.174;2022-11-15T14:57:56;98979.91;;;15.69;57.49
62011;BME280;47967;51.756;10.174;2022-11-15T15:02:00;98977.25;;;15.52;57.79
62011;BME280;47967;51.756;10.174;2022-11-15T15:06:03;98974.28;;;15.32;58.20
62011;BME280;47967;51.756;10.174;2022-11-15T15:10:06;98970.03;;;15.19;58.45
62011;BME280;47967;51.756;10.174;2022-11-15T15:14:29;98967.34;;;15.02;58.86
62011;BME280;47967;51.756;10.174;2022-11-15T15:18:33;98951.38;;;14.88;59.23
62011;BME280;47967;51.756;10.174;2022-11-15T15:22:36;98952.78;;;14.74;59.61
62011;BME280;47967;51.756;10.174;2022-11-15T15:26:39;98943.50;;;14.70;59.72
62011;BME280;47967;51.756;10.174;2022-11-15T15:30:42;98949.91;;;14.64;59.86
62011;BME280;47967;51.756;10.174;2022-11-15T15:34:46;98945.78;;;14.61;59.83
62011;BME280;47967;51.756;10.174;2022-11-15T15:38:49;98943.47;;;14.53;60.02
62011;BME280;47967;51.756;10.174;2022-11-15T15:42:52;98939.19;;;14.57;59.83
62011;BME280;47967;51.756;10.174;2022-11-15T15:46:54;98929.25;;;14.63;59.60
62011;BME280;47967;51.756;10.174;2022-11-15T15:51:00;98936.81;;;14.61;59.55
62011;BME280;47967;51.756;10.174;2022-11-15T15:55:11;98918.06;;;14.59;59.51
62011;BME280;47967;51.756;10.174;2022-11-15T15:59:14;98913.69;;;14.41;59.84
62011;BME280;47967;51.756;10.174;2022-11-15T16:03:17;98914.75;;;14.23;60.14
62011;BME280;47967;51.756;10.174;2022-11-15T16:07:22;98912.78;;;14.01;60.83
62011;BME280;47967;51.756;10.174;2022-11-15T16:11:25;98910.78;;;13.68;61.74
62011;BME280;47967;51.756;10.174;2022-11-15T16:15:30;98904.88;;;13.42;62.19
62011;BME280;47967;51.756;10.174;2022-11-15T16:19:34;98908.41;;;13.31;62.73
62011;BME280;47967;51.756;10.174;2022-11-15T16:23:38;98909.00;;;13.21;63.13
62011;BME280;47967;51.756;10.174;2022-11-15T16:27:41;98898.06;;;13.16;63.49
62011;BME280;47967;51.756;10.174;2022-11-15T16:31:46;98885.97;;;13.06;63.68
62011;BME280;47967;51.756;10.174;2022-11-15T16:35:48;98891.50;;;13.00;63.88
62011;BME280;47967;51.756;10.174;2022-11-15T16:39:53;98885.38;;;12.92;63.94
62011;BME280;47967;51.756;10.174;2022-11-15T16:44:01;98886.56;;;12.85;64.14
62011;BME280;47967;51.756;10.174;2022-11-15T16:48:04;98888.91;;;12.69;64.23
62011;BME280;47967;51.756;10.174;2022-11-15T16:52:06;98883.75;;;12.56;65.09
62011;BME280;47967;51.756;10.174;2022-11-15T16:56:18;98879.53;;;12.60;65.26
62011;BME280;47967;51.756;10.174;2022-11-15T17:00:21;98884.94;;;12.48;65.55
62011;BME280;47967;51.756;10.174;2022-11-15T17:04:24;98885.16;;;12.58;65.64
62011;BME280;47967;51.756;10.174;2022-11-15T17:08:31;98879.16;;;12.44;65.94
62011;BME280;47967;51.756;10.174;2022-11-15T17:12:36;98883.03;;;12.48;66.55
62011;BME280;47967;51.756;10.174;2022-11-15T17:16:39;98877.16;;;12.52;66.13
62011;BME280;47967;51.756;10.174;2022-11-15T17:20:44;98876.91;;;12.53;66.41
62011;BME280;47967;51.756;10.174;2022-11-15T17:24:47;98881.75;;;12.75;66.20
62011;BME280;47967;51.756;10.174;2022-11-15T17:28:54;98875.38;;;12.93;65.92
62011;BME280;47967;51.756;10.174;2022-11-15T17:32:57;98871.56;;;13.06;65.44
62011;BME280;47967;51.756;10.174;2022-11-15T17:37:01;98867.09;;;13.11;65.33
62011;BME280;47967;51.756;10.174;2022-11-15T17:41:05;98865.56;;;13.16;65.52
62011;BME280;47967;51.756;10.174;2022-11-15T17:45:11;98855.19;;;13.24;65.23
62011;BME280;47967;51.756;10.174;2022-11-15T17:49:14;98858.47;;;13.38;64.72
62011;BME280;47967;51.756;10.174;2022-11-15T17:53:17;98850.50;;;13.49;64.42
62011;BME280;47967;51.756;10.174;2022-11-15T17:57:20;98841.19;;;13.56;64.04
62011;BME280;47967;51.756;10.174;2022-11-15T18:01:25;98848.69;;;13.66;63.80
62011;BME280;47967;51.756;10.174;2022-11-15T18:05:28;98843.59;;;13.70;63.66
62011;BME280;47967;51.756;10.174;2022-11-15T18:09:31;98839.59;;;13.72;63.72
62011;BME280;47967;51.756;10.174;2022-11-15T18:13:34;98837.94;;;13.71;64.05
62011;BME280;47967;51.756;10.174;2022-11-15T18:17:38;98836.16;;;13.77;64.10
62011;BME280;47967;51.756;10.174;2022-11-15T18:21:42;98828.56;;;13.79;64.23
62011;BME280;47967;51.756;10.174;2022-11-15T18:25:59;98819.38;;;13.80;64.93
62011;BME280;47967;51.756;10.174;2022-11-15T18:30:02;98822.00;;;13.75;65.41
62011;BME280;47967;51.756;10.174;2022-11-15T18:34:07;98816.84;;;13.73;65.42
62011;BME280;47967;51.756;10.174;2022-11-15T18:38:10;98814.53;;;13.82;65.26
62011;BME280;47967;51.756;10.174;2022-11-15T18:42:13;98817.19;;;13.94;65.63
62011;BME280;47967;51.756;10.174;2022-11-15T18:46:18;98811.09;;;14.04;65.58
62011;BME280;47967;51.756;10.174;2022-11-15T18:50:22;98801.13;;;14.09;65.74
62011;BME280;47967;51.756;10.174;2022-11-15T18:54:25;98799.00;;;14.12;65.81
62011;BME280;47967;51.756;10.174;2022-11-15T18:58:34;98794.81;;;14.21;65.39
62011;BME280;47967;51.756;10.174;2022-11-15T19:02:37;98780.69;;;14.19;65.25
62011;BME280;47967;51.756;10.174;2022-11-15T19:06:43;98779.63;;;14.20;65.27
62011;BME280;47967;51.756;10.174;2022-11-15T19:10:45;98778.97;;;14.13;65.36
62011;BME280;47967;51.756;10.174;2022-11-15T19:14:48;98772.22;;;13.98;66.05
62011;BME280;47967;51.756;10.174;2022-11-15T19:18:55;98762.19;;;13.82;66.93
62011;BME280;47967;51.756;10.174;2022-11-15T19:22:59;98763.94;;;13.71;67.16
62011;BME280;47967;51.756;10.174;2022-11-15T19:27:02;98757.34;;;13.67;67.47
62011;BME280;47967;51.756;10.174;2022-11-15T19:31:05;98752.00;;;13.72;67.07
62011;BME280;47967;51.756;10.174;2022-11-15T19:35:08;98749.88;;;13.74;66.89
62011;BME280;47967;51.756;10.174;2022-11-15T19:39:13;98732.06;;;13.78;66.57
62011;BME280;47967;51.756;10.174;2022-11-15T19:43:18;98736.81;;;13.71;66.83
62011;BME280;47967;51.756;10.174;2022-11-15T19:47:21;98733.19;;;13.65;66.70
62011;BME280;47967;51.756;10.174;2022-11-15T19:51:25;98724.25;;;13.65;66.61
62011;BME280;47967;51.756;10.174;2022-11-15T19:55:29;98723.75;;;13.68;66.65
62011;BME280;47967;51.756;10.174;2022-11-15T19:59:32;98717.09;;;13.58;66.76
62011;BME280;47967;51.756;10.174;2022-11-15T20:03:34;98711.25;;;13.67;65.99
62011;BME280;47967;51.756;10.174;2022-11-15T20:07:37;98712.25;;;13.95;64.68
62011;BME280;47967;51.756;10.174;2022-11-15T20:11:41;98704.47;;;14.20;63.49
62011;BME280;47967;51.756;10.174;2022-11-15T20:15:44;98708.88;;;14.27;62.97
62011;BME280;47967;51.756;10.174;2022-11-15T20:19:47;98699.50;;;14.34;62.48
62011;BME280;47967;51.756;10.174;2022-11-15T20:23:49;98695.22;;;14.38;62.21
62011;BME280;47967;51.756;10.174;2022-11-15T20:27:53;98699.00;;;14.37;62.15
62011;BME280;47967;51.756;10.174;2022-11-15T20:31:56;98705.25;;;14.38;62.04
62011;BME280;47967;51.756;10.174;2022-11-15T20:36:02;98699.56;;;14.39;61.84
62011;BME280;47967;51.756;10.174;2022-11-15T20:40:06;98706.56;;;14.35;61.98
62011;BME280;47967;51.756;10.174;2022-11-15T20:44:10;98693.66;;;14.03;63.41
62011;BME280;47967;51.756;10.174;2022-11-15T20:48:13;98703.63;;;13.81;64.13
62011;BME280;47967;51.756;10.174;2022-11-15T20:52:16;98708.16;;;13.75;64.44
62011;BME280;47967;51.756;10.174;2022-11-15T20:56:20;98716.13;;;13.65;64.48
62011;BME280;47967;51.756;10.174;2022-11-15T21:00:24;98699.53;;;13.61;64.69
62011;BME280;47967;51.756;10.174;2022-11-15T21:04:27;98708.53;;;13.50;64.90
62011;BME280;47967;51.756;10.174;2022-11-15T21:08:30;98702.25;;;13.44;64.89
62011;BME280;47967;51.756;10.174;2022-11-15T21:12:53;98699.53;;;13.61;63.45
62011;BME280;47967;51.756;10.174;2022-11-15T21:16:56;98696.72;;;13.73;62.43
62011;BME280;47967;51.756;10.174;2022-11-15T21:21:03;98693.84;;;13.97;61.71
62011;BME280;47967;51.756;10.174;2022-11-15T21:25:07;98689.22;;;13.97;61.54
62011;BME280;47967;51.756;10.174;2022-11-15T21:29:09;98686.75;;;13.96;61.69
62011;BME280;47967;51.756;10.174;2022-11-15T21:33:19;98685.53;;;13.86;62.04
62011;BME280;47967;51.756;10.174;2022-11-15T21:37:24;98670.34;;;13.85;61.90
62011;BME280;47967;51.756;10.174;2022-11-15T21:41:26;98662.31;;;13.73;61.98
62011;BME280;47967;51.756;10.174;2022-11-15T21:45:29;98664.50;;;13.76;61.80
62011;BME280;47967;51.756;10.174;2022-11-15T21:49:33;98652.13;;;13.81;61.54
62011;BME280;47967;51.756;10.174;2022-11-15T21:53:36;98642.28;;;13.74;61.57
62011;BME280;47967;51.756;10.174;2022-11-15T21:57:38;98640.44;;;13.80;61.77
